sensor_id;sensor_type;location;lat;lon;timestamp;P1;durP1;ratioP1;P2;durP2;ratioP2
30462;SDS011;17256;43.618;25.336;2022-09-01T00:00:45;18.20;;;15.77;;
30462;SDS011;17256;43.618;25.336;2022-09-01T00:03:15;16.80;;;14.93;;
30462;SDS011;17256;43.618;25.336;2022-09-01T00:05:49;16.10;;;14.63;;
30462;SDS011;17256;43.618;25.336;2022-09-01T00:08:20;19.13;;;15.27;;
30462;SDS011;17256;43.618;25.336;2022-09-01T00:10:55;17.10;;;15.43;;
30462;SDS011;17256;43.618;25.336;2022-09-01T00:13:22;18.60;;;13.80;;
30462;SDS011;17256;43.618;25.336;2022-09-01T00:15:49;16.83;;;15.00;;
30462;SDS011;17256;43.618;25.336;2022-09-01T00:18:24;15.77;;;14.33;;
30462;SDS011;17256;43.618;25.336;2022-09-01T00:20:59;15.93;;;14.43;;
30462;SDS011;17256;43.618;25.336;2022-09-01T00:23:27;17.13;;;15.27;;
30462;SDS011;17256;43.618;25.336;2022-09-01T00:25:57;16.40;;;14.70;;
30462;SDS011;17256;43.618;25.336;2022-09-01T00:31:10;16.37;;;14.77;;
30462;SDS011;17256;43.618;25.336;2022-09-01T00:33:39;16.37;;;14.67;;
30462;SDS011;17256;43.618;25.336;2022-09-01T00:36:09;16.70;;;14.50;;
30462;SDS011;17256;43.618;25.336;2022-09-01T00:38:40;21.10;;;15.00;;
30462;SDS011;17256;43.618;25.336;2022-09-01T00:41:12;16.77;;;14.57;;
30462;SDS011;17256;43.618;25.336;2022-09-01T00:43:47;17.30;;;14.83;;
30462;SDS011;17256;43.618;25.336;2022-09-01T00:46:22;16.37;;;14.87;;
30462;SDS011;17256;43.618;25.336;2022-09-01T00:48:56;15.67;;;14.10;;
30462;SDS011;17256;43.618;25.336;2022-09-01T00:51:28;16.70;;;15.10;;
30462;SDS011;17256;43.618;25.336;2022-09-01T00:53:59;15.77;;;14.17;;
30462;SDS011;17256;43.618;25.336;2022-09-01T00:56:35;15.43;;;13.93;;
30462;SDS011;17256;43.618;25.336;2022-09-01T01:01:38;14.93;;;13.07;;
30462;SDS011;17256;43.618;25.336;2022-09-01T01:04:07;15.70;;;14.13;;
30462;SDS011;17256;43.618;25.336;2022-09-01T01:06:45;15.40;;;13.80;;
30462;SDS011;17256;43.618;25.336;2022-09-01T01:09:19;16.30;;;14.60;;
30462;SDS011;17256;43.618;25.336;2022-09-01T01:11:48;17.50;;;15.83;;
30462;SDS011;17256;43.618;25.336;2022-09-01T01:14:19;16.83;;;15.13;;
30462;SDS011;17256;43.618;25.336;2022-09-01T01:16:49;17.60;;;15.83;;
30462;SDS011;17256;43.618;25.336;2022-09-01T01:19:27;16.43;;;14.73;;
30462;SDS011;17256;43.618;25.336;2022-09-01T01:25:46;18.60;;;14.53;;
30462;SDS011;17256;43.618;25.336;2022-09-01T01:28:19;17.67;;;15.00;;
30462;SDS011;17256;43.618;25.336;2022-09-01T01:31:01;17.07;;;15.47;;
30462;SDS011;17256;43.618;25.336;2022-09-01T01:33:50;16.17;;;14.63;;
30462;SDS011;17256;43.618;25.336;2022-09-01T01:36:28;18.53;;;15.53;;
30462;SDS011;17256;43.618;25.336;2022-09-01T01:41:46;18.53;;;15.77;;
30462;SDS011;17256;43.618;25.336;2022-09-01T01:44:19;17.07;;;15.33;;
30462;SDS011;17256;43.618;25.336;2022-09-01T01:46:55;17.80;;;15.47;;
30462;SDS011;17256;43.618;25.336;2022-09-01T01:49:24;19.00;;;16.90;;
30462;SDS011;17256;43.618;25.336;2022-09-01T01:51:59;22.93;;;17.13;;
30462;SDS011;17256;43.618;25.336;2022-09-01T01:57:17;19.73;;;17.67;;
30462;SDS011;17256;43.618;25.336;2022-09-01T01:59:47;23.07;;;17.23;;
30462;SDS011;17256;43.618;25.336;2022-09-01T02:02:20;19.97;;;18.03;;
30462;SDS011;17256;43.618;25.336;2022-09-01T02:04:50;19.30;;;17.50;;
30462;SDS011;17256;43.618;25.336;2022-09-01T02:07:26;21.63;;;18.93;;
30462;SDS011;17256;43.618;25.336;2022-09-01T02:10:02;21.70;;;19.40;;
30462;SDS011;17256;43.618;25.336;2022-09-01T02:12:45;23.93;;;20.43;;
30462;SDS011;17256;43.618;25.336;2022-09-01T02:15:12;22.70;;;19.83;;
30462;SDS011;17256;43.618;25.336;2022-09-01T02:17:41;21.80;;;19.60;;
30462;SDS011;17256;43.618;25.336;2022-09-01T02:20:12;23.60;;;19.47;;
30462;SDS011;17256;43.618;25.336;2022-09-01T02:22:41;23.47;;;20.10;;
30462;SDS011;17256;43.618;25.336;2022-09-01T02:25:11;22.30;;;20.10;;
30462;SDS011;17256;43.618;25.336;2022-09-01T02:27:42;26.37;;;19.77;;
30462;SDS011;17256;43.618;25.336;2022-09-01T02:30:16;21.57;;;19.27;;
30462;SDS011;17256;43.618;25.336;2022-09-01T02:32:49;20.63;;;18.67;;
30462;SDS011;17256;43.618;25.336;2022-09-01T02:35:19;23.00;;;18.97;;
30462;SDS011;17256;43.618;25.336;2022-09-01T02:37:49;22.00;;;19.00;;
30462;SDS011;17256;43.618;25.336;2022-09-01T02:40:26;20.97;;;18.13;;
30462;SDS011;17256;43.618;25.336;2022-09-01T02:43:02;23.57;;;19.33;;
30462;SDS011;17256;43.618;25.336;2022-09-01T02:48:17;23.37;;;19.60;;
30462;SDS011;17256;43.618;25.336;2022-09-01T02:50:47;22.17;;;19.93;;
30462;SDS011;17256;43.618;25.336;2022-09-01T02:53:16;23.83;;;21.30;;
30462;SDS011;17256;43.618;25.336;2022-09-01T02:55:45;21.17;;;19.23;;
30462;SDS011;17256;43.618;25.336;2022-09-01T02:58:16;22.63;;;20.13;;
30462;SDS011;17256;43.618;25.336;2022-09-01T03:00:45;20.20;;;18.20;;
30462;SDS011;17256;43.618;25.336;2022-09-01T03:03:20;22.20;;;19.87;;
30462;SDS011;17256;43.618;25.336;2022-09-01T03:05:54;26.87;;;20.27;;
30462;SDS011;17256;43.618;25.336;2022-09-01T03:08:24;23.70;;;18.40;;
30462;SDS011;17256;43.618;25.336;2022-09-01T03:10:54;21.13;;;18.77;;
30462;SDS011;17256;43.618;25.336;2022-09-01T03:13:27;26.63;;;20.20;;
30462;SDS011;17256;43.618;25.336;2022-09-01T03:15:57;22.53;;;20.27;;
30462;SDS011;17256;43.618;25.336;2022-09-01T03:18:24;25.73;;;23.03;;
30462;SDS011;17256;43.618;25.336;2022-09-01T03:20:55;28.33;;;25.37;;
30462;SDS011;17256;43.618;25.336;2022-09-01T03:23:22;29.73;;;25.27;;
30462;SDS011;17256;43.618;25.336;2022-09-01T03:25:50;26.23;;;23.50;;
30462;SDS011;17256;43.618;25.336;2022-09-01T03:28:18;26.70;;;24.10;;
30462;SDS011;17256;43.618;25.336;2022-09-01T03:30:48;28.47;;;25.53;;
30462;SDS011;17256;43.618;25.336;2022-09-01T03:33:19;29.33;;;26.30;;
30462;SDS011;17256;43.618;25.336;2022-09-01T03:35:50;26.40;;;23.60;;
30462;SDS011;17256;43.618;25.336;2022-09-01T03:38:18;28.37;;;25.60;;
30462;SDS011;17256;43.618;25.336;2022-09-01T03:40:52;22.47;;;20.37;;
30462;SDS011;17256;43.618;25.336;2022-09-01T03:43:24;22.50;;;20.40;;
30462;SDS011;17256;43.618;25.336;2022-09-01T03:45:54;21.13;;;18.87;;
30462;SDS011;17256;43.618;25.336;2022-09-01T03:48:23;17.77;;;16.17;;
30462;SDS011;17256;43.618;25.336;2022-09-01T03:50:54;18.57;;;16.67;;
30462;SDS011;17256;43.618;25.336;2022-09-01T03:53:23;19.00;;;17.10;;
30462;SDS011;17256;43.618;25.336;2022-09-01T03:55:55;17.80;;;15.73;;
30462;SDS011;17256;43.618;25.336;2022-09-01T03:58:24;17.53;;;15.90;;
30462;SDS011;17256;43.618;25.336;2022-09-01T04:00:52;18.03;;;16.13;;
30462;SDS011;17256;43.618;25.336;2022-09-01T04:03:22;17.03;;;15.53;;
30462;SDS011;17256;43.618;25.336;2022-09-01T04:06:00;16.70;;;14.57;;
30462;SDS011;17256;43.618;25.336;2022-09-01T04:08:32;15.70;;;14.10;;
30462;SDS011;17256;43.618;25.336;2022-09-01T04:11:01;17.10;;;15.20;;
30462;SDS011;17256;43.618;25.336;2022-09-01T04:13:36;17.57;;;13.87;;
30462;SDS011;17256;43.618;25.336;2022-09-01T04:16:05;18.97;;;14.53;;
30462;SDS011;17256;43.618;25.336;2022-09-01T04:18:56;15.87;;;14.30;;
30462;SDS011;17256;43.618;25.336;2022-09-01T04:21:33;15.80;;;14.10;;
30462;SDS011;17256;43.618;25.336;2022-09-01T04:24:01;15.77;;;14.17;;
30462;SDS011;17256;43.618;25.336;2022-09-01T04:29:09;14.87;;;13.30;;
30462;SDS011;17256;43.618;25.336;2022-09-01T04:31:41;14.63;;;13.10;;
30462;SDS011;17256;43.618;25.336;2022-09-01T04:34:07;13.83;;;12.43;;
30462;SDS011;17256;43.618;25.336;2022-09-01T04:36:41;14.23;;;12.93;;
30462;SDS011;17256;43.618;25.336;2022-09-01T04:39:10;13.27;;;10.90;;
30462;SDS011;17256;43.618;25.336;2022-09-01T04:41:41;12.43;;;10.43;;
30462;SDS011;17256;43.618;25.336;2022-09-01T04:44:13;11.73;;;10.50;;
30462;SDS011;17256;43.618;25.336;2022-09-01T04:46:45;14.13;;;11.00;;
30462;SDS011;17256;43.618;25.336;2022-09-01T04:49:13;11.63;;;9.87;;
30462;SDS011;17256;43.618;25.336;2022-09-01T04:51:48;10.97;;;9.77;;
30462;SDS011;17256;43.618;25.336;2022-09-01T04:54:17;14.47;;;10.30;;
30462;SDS011;17256;43.618;25.336;2022-09-01T04:56:45;9.43;;;8.63;;
30462;SDS011;17256;43.618;25.336;2022-09-01T04:59:18;11.77;;;10.53;;
30462;SDS011;17256;43.618;25.336;2022-09-01T05:01:50;13.13;;;9.67;;
30462;SDS011;17256;43.618;25.336;2022-09-01T05:04:20;10.47;;;9.47;;
30462;SDS011;17256;43.618;25.336;2022-09-01T05:06:56;9.67;;;8.67;;
30462;SDS011;17256;43.618;25.336;2022-09-01T05:09:35;9.87;;;8.87;;
30462;SDS011;17256;43.618;25.336;2022-09-01T05:12:24;11.43;;;9.30;;
30462;SDS011;17256;43.618;25.336;2022-09-01T05:14:59;12.80;;;9.93;;
30462;SDS011;17256;43.618;25.336;2022-09-01T05:17:31;11.63;;;10.53;;
30462;SDS011;17256;43.618;25.336;2022-09-01T05:19:59;10.90;;;9.90;;
30462;SDS011;17256;43.618;25.336;2022-09-01T05:22:26;10.93;;;9.67;;
30462;SDS011;17256;43.618;25.336;2022-09-01T05:24:59;12.50;;;10.93;;
30462;SDS011;17256;43.618;25.336;2022-09-01T05:27:41;10.80;;;9.70;;
30462;SDS011;17256;43.618;25.336;2022-09-01T05:30:15;12.00;;;9.70;;
30462;SDS011;17256;43.618;25.336;2022-09-01T05:32:43;11.50;;;10.37;;
30462;SDS011;17256;43.618;25.336;2022-09-01T05:35:13;10.50;;;9.50;;
30462;SDS011;17256;43.618;25.336;2022-09-01T05:37:40;16.07;;;10.10;;
30462;SDS011;17256;43.618;25.336;2022-09-01T05:42:44;13.20;;;11.50;;
30462;SDS011;17256;43.618;25.336;2022-09-01T05:45:13;12.00;;;10.23;;
30462;SDS011;17256;43.618;25.336;2022-09-01T05:47:44;11.27;;;10.27;;
30462;SDS011;17256;43.618;25.336;2022-09-01T05:50:20;11.93;;;10.00;;
30462;SDS011;17256;43.618;25.336;2022-09-01T05:52:54;14.07;;;11.80;;
30462;SDS011;17256;43.618;25.336;2022-09-01T05:55:27;12.33;;;11.00;;
30462;SDS011;17256;43.618;25.336;2022-09-01T05:58:02;12.37;;;11.27;;
30462;SDS011;17256;43.618;25.336;2022-09-01T06:00:45;11.87;;;10.63;;
30462;SDS011;17256;43.618;25.336;2022-09-01T06:03:13;11.80;;;10.80;;
30462;SDS011;17256;43.618;25.336;2022-09-01T06:05:44;12.47;;;11.17;;
30462;SDS011;17256;43.618;25.336;2022-09-01T06:08:20;10.77;;;9.67;;
30462;SDS011;17256;43.618;25.336;2022-09-01T06:11:09;12.60;;;10.90;;
30462;SDS011;17256;43.618;25.336;2022-09-01T06:16:59;10.93;;;9.57;;
30462;SDS011;17256;43.618;25.336;2022-09-01T07:04:27;12.13;;;9.37;;
30462;SDS011;17256;43.618;25.336;2022-09-01T08:05:00;8.40;;;7.63;;
30462;SDS011;17256;43.618;25.336;2022-09-01T08:35:56;9.97;;;8.30;;
30462;SDS011;17256;43.618;25.336;2022-09-01T08:38:23;8.63;;;7.83;;
30462;SDS011;17256;43.618;25.336;2022-09-01T08:40:53;9.23;;;8.33;;
30462;SDS011;17256;43.618;25.336;2022-09-01T08:52:49;9.73;;;7.60;;
30462;SDS011;17256;43.618;25.336;2022-09-01T09:05:45;7.90;;;7.10;;
30462;SDS011;17256;43.618;25.336;2022-09-01T09:09:14;8.17;;;7.50;;
30462;SDS011;17256;43.618;25.336;2022-09-01T09:12:15;8.10;;;7.50;;
30462;SDS011;17256;43.618;25.336;2022-09-01T09:15:01;9.13;;;7.87;;
30462;SDS011;17256;43.618;25.336;2022-09-01T09:17:43;8.27;;;7.47;;
30462;SDS011;17256;43.618;25.336;2022-09-01T09:20:14;9.17;;;7.20;;
30462;SDS011;17256;43.618;25.336;2022-09-01T09:27:06;8.10;;;7.40;;
30462;SDS011;17256;43.618;25.336;2022-09-01T09:29:46;8.57;;;7.57;;
30462;SDS011;17256;43.618;25.336;2022-09-01T09:32:16;7.70;;;7.00;;
30462;SDS011;17256;43.618;25.336;2022-09-01T09:34:43;7.73;;;7.03;;
30462;SDS011;17256;43.618;25.336;2022-09-01T09:40:15;8.67;;;7.77;;
30462;SDS011;17256;43.618;25.336;2022-09-01T09:45:22;8.53;;;6.57;;
30462;SDS011;17256;43.618;25.336;2022-09-01T09:47:51;7.80;;;7.10;;
30462;SDS011;17256;43.618;25.336;2022-09-01T09:50:27;7.93;;;7.23;;
30462;SDS011;17256;43.618;25.336;2022-09-01T09:59:49;6.83;;;6.17;;
30462;SDS011;17256;43.618;25.336;2022-09-01T10:02:30;8.67;;;6.80;;
30462;SDS011;17256;43.618;25.336;2022-09-01T10:08:49;7.23;;;6.60;;
30462;SDS011;17256;43.618;25.336;2022-09-01T10:11:29;7.97;;;7.27;;
30462;SDS011;17256;43.618;25.336;2022-09-01T10:16:41;8.00;;;7.20;;
30462;SDS011;17256;43.618;25.336;2022-09-01T10:19:12;8.03;;;7.33;;
30462;SDS011;17256;43.618;25.336;2022-09-01T10:21:39;9.07;;;6.70;;
30462;SDS011;17256;43.618;25.336;2022-09-01T10:26:49;8.33;;;6.23;;
30462;SDS011;17256;43.618;25.336;2022-09-01T10:29:28;7.90;;;7.20;;
30462;SDS011;17256;43.618;25.336;2022-09-01T10:31:57;8.50;;;6.53;;
30462;SDS011;17256;43.618;25.336;2022-09-01T10:34:24;7.60;;;6.87;;
30462;SDS011;17256;43.618;25.336;2022-09-01T10:36:57;7.57;;;6.93;;
30462;SDS011;17256;43.618;25.336;2022-09-01T10:39:24;8.97;;;6.33;;
30462;SDS011;17256;43.618;25.336;2022-09-01T10:44:33;7.10;;;6.40;;
30462;SDS011;17256;43.618;25.336;2022-09-01T10:47:10;8.77;;;6.60;;
30462;SDS011;17256;43.618;25.336;2022-09-01T10:55:17;7.20;;;6.57;;
30462;SDS011;17256;43.618;25.336;2022-09-01T11:10:53;8.83;;;7.00;;
30462;SDS011;17256;43.618;25.336;2022-09-01T11:27:03;7.77;;;7.07;;
30462;SDS011;17256;43.618;25.336;2022-09-01T11:32:33;7.07;;;6.37;;
30462;SDS011;17256;43.618;25.336;2022-09-01T11:35:01;8.23;;;6.57;;
30462;SDS011;17256;43.618;25.336;2022-09-01T11:37:29;10.70;;;6.27;;
30462;SDS011;17256;43.618;25.336;2022-09-01T11:39:59;8.23;;;6.73;;
30462;SDS011;17256;43.618;25.336;2022-09-01T11:42:36;9.40;;;6.30;;
30462;SDS011;17256;43.618;25.336;2022-09-01T11:47:40;6.53;;;5.93;;
30462;SDS011;17256;43.618;25.336;2022-09-01T11:50:22;8.50;;;6.30;;
30462;SDS011;17256;43.618;25.336;2022-09-01T11:52:57;7.10;;;6.50;;
30462;SDS011;17256;43.618;25.336;2022-09-01T11:55:30;11.33;;;7.43;;
30462;SDS011;17256;43.618;25.336;2022-09-01T11:58:01;6.70;;;5.70;;
30462;SDS011;17256;43.618;25.336;2022-09-01T12:00:32;7.17;;;6.37;;
30462;SDS011;17256;43.618;25.336;2022-09-01T12:03:03;7.77;;;6.47;;
30462;SDS011;17256;43.618;25.336;2022-09-01T12:05:42;7.37;;;6.13;;
30462;SDS011;17256;43.618;25.336;2022-09-01T12:08:11;8.40;;;7.67;;
30462;SDS011;17256;43.618;25.336;2022-09-01T12:10:39;8.77;;;6.90;;
30462;SDS011;17256;43.618;25.336;2022-09-01T12:13:09;7.90;;;6.70;;
30462;SDS011;17256;43.618;25.336;2022-09-01T12:15:38;8.20;;;6.30;;
30462;SDS011;17256;43.618;25.336;2022-09-01T12:18:09;8.77;;;5.43;;
30462;SDS011;17256;43.618;25.336;2022-09-01T12:20:38;7.77;;;6.60;;
30462;SDS011;17256;43.618;25.336;2022-09-01T12:23:18;9.80;;;7.93;;
30462;SDS011;17256;43.618;25.336;2022-09-01T12:25:50;9.37;;;7.20;;
30462;SDS011;17256;43.618;25.336;2022-09-01T12:28:20;8.87;;;8.00;;
30462;SDS011;17256;43.618;25.336;2022-09-01T12:30:48;9.93;;;6.60;;
30462;SDS011;17256;43.618;25.336;2022-09-01T12:33:16;9.73;;;8.70;;
30462;SDS011;17256;43.618;25.336;2022-09-01T12:35:43;7.63;;;6.93;;
30462;SDS011;17256;43.618;25.336;2022-09-01T12:40:44;11.10;;;9.10;;
30462;SDS011;17256;43.618;25.336;2022-09-01T12:43:34;12.47;;;11.47;;
30462;SDS011;17256;43.618;25.336;2022-09-01T12:46:00;8.37;;;7.60;;
30462;SDS011;17256;43.618;25.336;2022-09-01T12:48:32;10.53;;;7.97;;
30462;SDS011;17256;43.618;25.336;2022-09-01T12:51:14;12.40;;;7.27;;
30462;SDS011;17256;43.618;25.336;2022-09-01T12:53:52;11.00;;;7.83;;
30462;SDS011;17256;43.618;25.336;2022-09-01T12:59:11;8.23;;;7.43;;
30462;SDS011;17256;43.618;25.336;2022-09-01T13:01:40;9.33;;;8.43;;
30462;SDS011;17256;43.618;25.336;2022-09-01T13:04:08;10.87;;;7.10;;
30462;SDS011;17256;43.618;25.336;2022-09-01T13:06:59;7.30;;;6.43;;
30462;SDS011;17256;43.618;25.336;2022-09-01T13:09:27;8.30;;;7.00;;
30462;SDS011;17256;43.618;25.336;2022-09-01T13:11:52;8.63;;;7.93;;
30462;SDS011;17256;43.618;25.336;2022-09-01T13:14:32;8.87;;;7.97;;
30462;SDS011;17256;43.618;25.336;2022-09-01T13:16:58;9.57;;;7.63;;
30462;SDS011;17256;43.618;25.336;2022-09-01T13:19:24;8.80;;;7.43;;
30462;SDS011;17256;43.618;25.336;2022-09-01T13:21:49;9.07;;;8.20;;
30462;SDS011;17256;43.618;25.336;2022-09-01T13:24:15;10.03;;;8.70;;
30462;SDS011;17256;43.618;25.336;2022-09-01T13:26:41;9.73;;;8.83;;
30462;SDS011;17256;43.618;25.336;2022-09-01T13:29:14;8.80;;;8.00;;
30462;SDS011;17256;43.618;25.336;2022-09-01T13:31:41;9.90;;;8.90;;
30462;SDS011;17256;43.618;25.336;2022-09-01T13:34:08;10.90;;;9.83;;
30462;SDS011;17256;43.618;25.336;2022-09-01T13:36:34;10.80;;;9.80;;
30462;SDS011;17256;43.618;25.336;2022-09-01T13:39:00;10.77;;;9.70;;
30462;SDS011;17256;43.618;25.336;2022-09-01T13:41:25;10.33;;;9.33;;
30462;SDS011;17256;43.618;25.336;2022-09-01T13:43:51;11.53;;;10.43;;
30462;SDS011;17256;43.618;25.336;2022-09-01T13:46:16;11.47;;;10.57;;
30462;SDS011;17256;43.618;25.336;2022-09-01T13:48:43;12.27;;;11.17;;
30462;SDS011;17256;43.618;25.336;2022-09-01T13:51:08;13.43;;;12.17;;
30462;SDS011;17256;43.618;25.336;2022-09-01T13:53:42;15.03;;;12.97;;
30462;SDS011;17256;43.618;25.336;2022-09-01T13:56:07;13.27;;;12.03;;
30462;SDS011;17256;43.618;25.336;2022-09-01T13:58:33;12.87;;;11.70;;
30462;SDS011;17256;43.618;25.336;2022-09-01T14:00:58;13.90;;;12.43;;
30462;SDS011;17256;43.618;25.336;2022-09-01T14:03:24;12.90;;;11.63;;
30462;SDS011;17256;43.618;25.336;2022-09-01T14:05:50;14.13;;;11.40;;
30462;SDS011;17256;43.618;25.336;2022-09-01T14:08:17;13.30;;;12.03;;
30462;SDS011;17256;43.618;25.336;2022-09-01T14:10:46;12.87;;;11.57;;
30462;SDS011;17256;43.618;25.336;2022-09-01T14:13:14;12.93;;;11.63;;
30462;SDS011;17256;43.618;25.336;2022-09-01T14:15:40;12.93;;;11.47;;
30462;SDS011;17256;43.618;25.336;2022-09-01T14:18:07;11.83;;;10.80;;
30462;SDS011;17256;43.618;25.336;2022-09-01T14:20:36;10.77;;;9.83;;
30462;SDS011;17256;43.618;25.336;2022-09-01T14:23:06;11.00;;;10.00;;
30462;SDS011;17256;43.618;25.336;2022-09-01T14:25:35;14.87;;;11.30;;
30462;SDS011;17256;43.618;25.336;2022-09-01T14:28:02;10.33;;;9.43;;
30462;SDS011;17256;43.618;25.336;2022-09-01T14:30:29;12.67;;;8.70;;
30462;SDS011;17256;43.618;25.336;2022-09-01T14:32:56;9.43;;;8.63;;
30462;SDS011;17256;43.618;25.336;2022-09-01T14:35:23;8.57;;;7.47;;
30462;SDS011;17256;43.618;25.336;2022-09-01T14:37:53;7.93;;;7.23;;
30462;SDS011;17256;43.618;25.336;2022-09-01T14:40:20;8.53;;;6.90;;
30462;SDS011;17256;43.618;25.336;2022-09-01T14:42:48;7.17;;;6.57;;
30462;SDS011;17256;43.618;25.336;2022-09-01T14:45:21;8.40;;;6.83;;
30462;SDS011;17256;43.618;25.336;2022-09-01T14:47:50;7.90;;;6.30;;
30462;SDS011;17256;43.618;25.336;2022-09-01T14:50:18;7.53;;;5.77;;
30462;SDS011;17256;43.618;25.336;2022-09-01T14:52:45;8.37;;;5.33;;
30462;SDS011;17256;43.618;25.336;2022-09-01T14:55:12;11.33;;;6.47;;
30462;SDS011;17256;43.618;25.336;2022-09-01T14:57:38;8.13;;;6.20;;
30462;SDS011;17256;43.618;25.336;2022-09-01T15:00:05;5.60;;;4.83;;
30462;SDS011;17256;43.618;25.336;2022-09-01T15:02:42;7.77;;;6.20;;
30462;SDS011;17256;43.618;25.336;2022-09-01T15:05:10;6.70;;;5.80;;
30462;SDS011;17256;43.618;25.336;2022-09-01T15:10:32;8.20;;;5.53;;
30462;SDS011;17256;43.618;25.336;2022-09-01T15:12:59;7.00;;;6.30;;
30462;SDS011;17256;43.618;25.336;2022-09-01T15:15:26;12.33;;;6.03;;
30462;SDS011;17256;43.618;25.336;2022-09-01T15:17:53;9.83;;;6.00;;
30462;SDS011;17256;43.618;25.336;2022-09-01T15:20:20;8.00;;;6.10;;
30462;SDS011;17256;43.618;25.336;2022-09-01T15:25:53;6.03;;;5.47;;
30462;SDS011;17256;43.618;25.336;2022-09-01T15:28:20;7.50;;;5.80;;
30462;SDS011;17256;43.618;25.336;2022-09-01T15:33:21;8.73;;;6.07;;
30462;SDS011;17256;43.618;25.336;2022-09-01T15:35:47;7.83;;;5.93;;
30462;SDS011;17256;43.618;25.336;2022-09-01T15:38:13;7.53;;;6.00;;
30462;SDS011;17256;43.618;25.336;2022-09-01T15:40:40;8.17;;;5.73;;
30462;SDS011;17256;43.618;25.336;2022-09-01T15:43:07;6.07;;;5.47;;
30462;SDS011;17256;43.618;25.336;2022-09-01T15:45:33;6.57;;;5.40;;
30462;SDS011;17256;43.618;25.336;2022-09-01T15:48:00;6.27;;;5.67;;
30462;SDS011;17256;43.618;25.336;2022-09-01T15:50:26;7.73;;;5.97;;
30462;SDS011;17256;43.618;25.336;2022-09-01T15:52:57;8.97;;;5.40;;
30462;SDS011;17256;43.618;25.336;2022-09-01T15:55:29;8.83;;;5.60;;
30462;SDS011;17256;43.618;25.336;2022-09-01T16:13:46;13.43;;;6.10;;
30462;SDS011;17256;43.618;25.336;2022-09-01T16:22:20;10.07;;;7.00;;
30462;SDS011;17256;43.618;25.336;2022-09-01T16:25:00;7.73;;;6.63;;
30462;SDS011;17256;43.618;25.336;2022-09-01T16:27:46;8.30;;;6.37;;
30462;SDS011;17256;43.618;25.336;2022-09-01T16:30:28;7.07;;;6.37;;
30462;SDS011;17256;43.618;25.336;2022-09-01T16:32:58;8.63;;;7.07;;
30462;SDS011;17256;43.618;25.336;2022-09-01T16:35:51;8.53;;;7.67;;
30462;SDS011;17256;43.618;25.336;2022-09-01T16:38:46;11.67;;;6.97;;
30462;SDS011;17256;43.618;25.336;2022-09-01T16:44:18;8.40;;;7.53;;
30462;SDS011;17256;43.618;25.336;2022-09-01T16:47:33;7.57;;;6.77;;
30462;SDS011;17256;43.618;25.336;2022-09-01T16:56:22;7.63;;;6.17;;
30462;SDS011;17256;43.618;25.336;2022-09-01T17:04:51;7.37;;;6.77;;
30462;SDS011;17256;43.618;25.336;2022-09-01T17:13:35;6.43;;;5.83;;
30462;SDS011;17256;43.618;25.336;2022-09-01T17:16:19;8.90;;;5.67;;
30462;SDS011;17256;43.618;25.336;2022-09-01T17:19:09;6.80;;;5.17;;
30462;SDS011;17256;43.618;25.336;2022-09-01T17:27:24;7.43;;;5.53;;
30462;SDS011;17256;43.618;25.336;2022-09-01T17:32:54;6.37;;;5.87;;
30462;SDS011;17256;43.618;25.336;2022-09-01T17:35:56;6.37;;;5.53;;
30462;SDS011;17256;43.618;25.336;2022-09-01T17:38:59;7.37;;;5.10;;
30462;SDS011;17256;43.618;25.336;2022-09-01T17:44:32;7.37;;;5.13;;
30462;SDS011;17256;43.618;25.336;2022-09-01T17:55:44;6.13;;;5.63;;
30462;SDS011;17256;43.618;25.336;2022-09-01T18:01:36;6.67;;;5.97;;
30462;SDS011;17256;43.618;25.336;2022-09-01T18:10:42;6.97;;;6.27;;
30462;SDS011;17256;43.618;25.336;2022-09-01T18:13:39;9.13;;;5.57;;
30462;SDS011;17256;43.618;25.336;2022-09-01T18:20:04;6.80;;;5.47;;
30462;SDS011;17256;43.618;25.336;2022-09-01T18:23:07;6.70;;;6.10;;
30462;SDS011;17256;43.618;25.336;2022-09-01T18:28:50;7.33;;;6.63;;
30462;SDS011;17256;43.618;25.336;2022-09-01T18:34:42;7.53;;;6.30;;
30462;SDS011;17256;43.618;25.336;2022-09-01T18:40:16;6.37;;;5.87;;
30462;SDS011;17256;43.618;25.336;2022-09-01T18:52:01;8.27;;;6.60;;
30462;SDS011;17256;43.618;25.336;2022-09-01T18:57:39;7.93;;;7.13;;
30462;SDS011;17256;43.618;25.336;2022-09-01T19:00:23;8.27;;;6.97;;
30462;SDS011;17256;43.618;25.336;2022-09-01T19:03:05;8.83;;;7.40;;
30462;SDS011;17256;43.618;25.336;2022-09-01T19:14:44;10.30;;;7.37;;
30462;SDS011;17256;43.618;25.336;2022-09-01T19:17:29;7.40;;;6.70;;
30462;SDS011;17256;43.618;25.336;2022-09-01T19:20:10;8.70;;;7.50;;
30462;SDS011;17256;43.618;25.336;2022-09-01T19:26:15;8.67;;;7.33;;
30462;SDS011;17256;43.618;25.336;2022-09-01T19:29:04;8.30;;;6.47;;
30462;SDS011;17256;43.618;25.336;2022-09-01T19:31:52;9.60;;;8.60;;
30462;SDS011;17256;43.618;25.336;2022-09-01T19:37:41;8.27;;;7.20;;
30462;SDS011;17256;43.618;25.336;2022-09-01T19:40:12;9.50;;;7.37;;
30462;SDS011;17256;43.618;25.336;2022-09-01T19:49:30;7.87;;;7.20;;
30462;SDS011;17256;43.618;25.336;2022-09-01T19:53:09;8.27;;;7.27;;
30462;SDS011;17256;43.618;25.336;2022-09-01T20:00:19;8.27;;;7.43;;
30462;SDS011;17256;43.618;25.336;2022-09-01T20:16:22;8.80;;;8.00;;
30462;SDS011;17256;43.618;25.336;2022-09-01T20:19:20;8.90;;;7.60;;
30462;SDS011;17256;43.618;25.336;2022-09-01T20:25:03;10.07;;;8.77;;
30462;SDS011;17256;43.618;25.336;2022-09-01T20:33:14;8.30;;;7.60;;
30462;SDS011;17256;43.618;25.336;2022-09-01T20:40:23;8.13;;;7.33;;
30462;SDS011;17256;43.618;25.336;2022-09-01T20:45:27;8.33;;;7.53;;
30462;SDS011;17256;43.618;25.336;2022-09-01T20:47:56;9.80;;;7.07;;
30462;SDS011;17256;43.618;25.336;2022-09-01T20:50:29;8.83;;;7.57;;
30462;SDS011;17256;43.618;25.336;2022-09-01T20:56:27;6.90;;;6.20;;
30462;SDS011;17256;43.618;25.336;2022-09-01T20:59:15;7.47;;;6.13;;
30462;SDS011;17256;43.618;25.336;2022-09-01T21:10:31;7.87;;;7.13;;
30462;SDS011;17256;43.618;25.336;2022-09-01T21:21:35;8.10;;;7.30;;
30462;SDS011;17256;43.618;25.336;2022-09-01T21:24:09;8.50;;;7.70;;
30462;SDS011;17256;43.618;25.336;2022-09-01T21:26:47;7.60;;;6.90;;
30462;SDS011;17256;43.618;25.336;2022-09-01T21:30:06;7.17;;;6.57;;
30462;SDS011;17256;43.618;25.336;2022-09-01T21:32:44;7.00;;;6.37;;
30462;SDS011;17256;43.618;25.336;2022-09-01T21:35:16;7.63;;;6.83;;
30462;SDS011;17256;43.618;25.336;2022-09-01T21:40:55;7.00;;;6.43;;
30462;SDS011;17256;43.618;25.336;2022-09-01T21:43:31;8.03;;;7.23;;
30462;SDS011;17256;43.618;25.336;2022-09-01T21:46:15;8.50;;;7.00;;
30462;SDS011;17256;43.618;25.336;2022-09-01T21:48:49;8.50;;;7.57;;
30462;SDS011;17256;43.618;25.336;2022-09-01T21:53:59;7.60;;;6.90;;
30462;SDS011;17256;43.618;25.336;2022-09-01T21:56:28;8.37;;;7.17;;
30462;SDS011;17256;43.618;25.336;2022-09-01T21:59:03;11.40;;;8.47;;
30462;SDS011;17256;43.618;25.336;2022-09-01T22:01:35;8.07;;;7.27;;
30462;SDS011;17256;43.618;25.336;2022-09-01T22:04:09;9.13;;;7.37;;
30462;SDS011;17256;43.618;25.336;2022-09-01T22:06:37;11.43;;;8.03;;
30462;SDS011;17256;43.618;25.336;2022-09-01T22:09:05;8.00;;;7.23;;
30462;SDS011;17256;43.618;25.336;2022-09-01T22:11:35;8.50;;;7.17;;
30462;SDS011;17256;43.618;25.336;2022-09-01T22:14:09;8.00;;;7.20;;
30462;SDS011;17256;43.618;25.336;2022-09-01T22:16:47;9.27;;;7.27;;